sensor_id;sensor_type;location;lat;lon;timestamp;P1;durP1;ratioP1;P2;durP2;ratioP2
75087;SDS011;63664;44.868;40.600;2023-05-28T00:00:12;6.95;;;3.67;;
75087;SDS011;63664;44.868;40.600;2023-05-28T00:02:43;6.82;;;4.15;;
75087;SDS011;63664;44.868;40.600;2023-05-28T00:05:09;6.30;;;3.83;;
75087;SDS011;63664;44.868;40.600;2023-05-28T00:07:38;6.22;;;4.05;;
75087;SDS011;63664;44.868;40.600;2023-05-28T00:10:07;7.47;;;3.97;;
75087;SDS011;63664;44.868;40.600;2023-05-28T00:12:34;6.93;;;3.63;;
75087;SDS011;63664;44.868;40.600;2023-05-28T00:15:00;5.13;;;3.65;;
75087;SDS011;63664;44.868;40.600;2023-05-28T00:17:26;9.98;;;3.25;;
75087;SDS011;63664;44.868;40.600;2023-05-28T00:19:59;6.40;;;3.95;;
75087;SDS011;63664;44.868;40.600;2023-05-28T00:22:25;5.30;;;3.33;;
75087;SDS011;63664;44.868;40.600;2023-05-28T00:24:52;6.82;;;3.50;;
75087;SDS011;63664;44.868;40.600;2023-05-28T00:27:21;9.85;;;4.22;;
75087;SDS011;63664;44.868;40.600;2023-05-28T00:29:47;7.90;;;3.83;;
75087;SDS011;63664;44.868;40.600;2023-05-28T00:32:17;6.63;;;3.70;;
75087;SDS011;63664;44.868;40.600;2023-05-28T00:34:43;7.68;;;4.30;;
75087;SDS011;63664;44.868;40.600;2023-05-28T00:37:12;6.72;;;3.70;;
75087;SDS011;63664;44.868;40.600;2023-05-28T00:39:40;6.60;;;4.03;;
75087;SDS011;63664;44.868;40.600;2023-05-28T00:42:07;6.25;;;3.78;;
75087;SDS011;63664;44.868;40.600;2023-05-28T00:44:36;5.65;;;3.60;;
75087;SDS011;63664;44.868;40.600;2023-05-28T00:47:05;5.60;;;3.90;;
75087;SDS011;63664;44.868;40.600;2023-05-28T00:49:32;8.98;;;3.90;;
75087;SDS011;63664;44.868;40.600;2023-05-28T01:00:03;7.60;;;3.28;;
75087;SDS011;63664;44.868;40.600;2023-05-28T01:02:30;4.65;;;3.13;;
75087;SDS011;63664;44.868;40.600;2023-05-28T01:04:56;5.63;;;3.47;;
75087;SDS011;63664;44.868;40.600;2023-05-28T01:07:25;7.15;;;3.90;;
75087;SDS011;63664;44.868;40.600;2023-05-28T01:09:52;5.88;;;3.33;;
75087;SDS011;63664;44.868;40.600;2023-05-28T01:12:21;7.38;;;3.17;;
75087;SDS011;63664;44.868;40.600;2023-05-28T01:14:53;7.10;;;3.30;;
75087;SDS011;63664;44.868;40.600;2023-05-28T01:17:26;6.60;;;3.65;;
75087;SDS011;63664;44.868;40.600;2023-05-28T01:19:53;7.07;;;3.72;;
75087;SDS011;63664;44.868;40.600;2023-05-28T01:22:24;7.85;;;3.58;;
75087;SDS011;63664;44.868;40.600;2023-05-28T01:24:57;6.85;;;3.83;;
75087;SDS011;63664;44.868;40.600;2023-05-28T01:27:26;5.72;;;3.60;;
75087;SDS011;63664;44.868;40.600;2023-05-28T01:29:55;5.85;;;3.42;;
75087;SDS011;63664;44.868;40.600;2023-05-28T01:32:22;9.32;;;3.47;;
75087;SDS011;63664;44.868;40.600;2023-05-28T01:34:50;8.23;;;3.53;;
75087;SDS011;63664;44.868;40.600;2023-05-28T01:37:16;5.65;;;3.35;;
75087;SDS011;63664;44.868;40.600;2023-05-28T01:39:44;5.53;;;3.08;;
75087;SDS011;63664;44.868;40.600;2023-05-28T01:42:13;11.15;;;3.30;;
75087;SDS011;63664;44.868;40.600;2023-05-28T01:44:40;6.82;;;3.58;;
75087;SDS011;63664;44.868;40.600;2023-05-28T01:47:10;6.28;;;3.30;;
75087;SDS011;63664;44.868;40.600;2023-05-28T01:49:42;8.23;;;2.78;;
75087;SDS011;63664;44.868;40.600;2023-05-28T01:52:09;5.45;;;3.00;;
75087;SDS011;63664;44.868;40.600;2023-05-28T01:54:38;6.22;;;2.90;;
75087;SDS011;63664;44.868;40.600;2023-05-28T01:57:04;6.32;;;2.83;;
75087;SDS011;63664;44.868;40.600;2023-05-28T01:59:31;7.75;;;2.88;;
75087;SDS011;63664;44.868;40.600;2023-05-28T02:01:58;10.85;;;2.90;;
75087;SDS011;63664;44.868;40.600;2023-05-28T02:04:24;3.67;;;2.30;;
75087;SDS011;63664;44.868;40.600;2023-05-28T02:06:52;5.03;;;2.75;;
75087;SDS011;63664;44.868;40.600;2023-05-28T02:09:19;8.07;;;2.83;;
75087;SDS011;63664;44.868;40.600;2023-05-28T02:11:50;5.00;;;2.60;;
75087;SDS011;63664;44.868;40.600;2023-05-28T02:14:17;3.70;;;2.65;;
75087;SDS011;63664;44.868;40.600;2023-05-28T02:16:46;4.60;;;2.42;;
75087;SDS011;63664;44.868;40.600;2023-05-28T02:19:18;5.70;;;2.17;;
75087;SDS011;63664;44.868;40.600;2023-05-28T02:21:45;7.57;;;2.40;;
75087;SDS011;63664;44.868;40.600;2023-05-28T02:24:12;6.03;;;2.63;;
75087;SDS011;63664;44.868;40.600;2023-05-28T02:26:41;4.57;;;2.63;;
75087;SDS011;63664;44.868;40.600;2023-05-28T02:29:09;6.60;;;2.63;;
75087;SDS011;63664;44.868;40.600;2023-05-28T02:31:35;5.85;;;1.98;;
75087;SDS011;63664;44.868;40.600;2023-05-28T02:34:04;5.85;;;2.33;;
75087;SDS011;63664;44.868;40.600;2023-05-28T02:36:30;6.00;;;2.63;;
75087;SDS011;63664;44.868;40.600;2023-05-28T02:38:58;5.85;;;2.90;;
75087;SDS011;63664;44.868;40.600;2023-05-28T02:41:25;6.15;;;2.50;;
75087;SDS011;63664;44.868;40.600;2023-05-28T02:43:54;7.43;;;2.65;;
75087;SDS011;63664;44.868;40.600;2023-05-28T02:46:20;4.25;;;2.17;;
75087;SDS011;63664;44.868;40.600;2023-05-28T02:48:48;5.95;;;2.60;;
75087;SDS011;63664;44.868;40.600;2023-05-28T02:51:17;5.95;;;2.40;;
75087;SDS011;63664;44.868;40.600;2023-05-28T02:54:11;8.68;;;2.58;;
75087;SDS011;63664;44.868;40.600;2023-05-28T02:56:38;6.18;;;2.85;;
75087;SDS011;63664;44.868;40.600;2023-05-28T02:59:04;4.70;;;2.55;;
75087;SDS011;63664;44.868;40.600;2023-05-28T03:01:30;8.88;;;2.30;;
75087;SDS011;63664;44.868;40.600;2023-05-28T03:03:59;10.43;;;2.85;;
75087;SDS011;63664;44.868;40.600;2023-05-28T03:06:30;6.38;;;2.72;;
75087;SDS011;63664;44.868;40.600;2023-05-28T03:09:00;7.35;;;2.70;;
75087;SDS011;63664;44.868;40.600;2023-05-28T03:11:29;5.18;;;2.78;;
75087;SDS011;63664;44.868;40.600;2023-05-28T03:13:58;4.47;;;3.00;;
75087;SDS011;63664;44.868;40.600;2023-05-28T03:16:24;5.22;;;2.42;;
75087;SDS011;63664;44.868;40.600;2023-05-28T03:18:51;10.48;;;3.15;;
75087;SDS011;63664;44.868;40.600;2023-05-28T03:21:20;7.13;;;3.33;;
75087;SDS011;63664;44.868;40.600;2023-05-28T03:23:50;5.35;;;2.72;;
75087;SDS011;63664;44.868;40.600;2023-05-28T03:26:40;5.07;;;2.72;;
75087;SDS011;63664;44.868;40.600;2023-05-28T03:29:07;5.03;;;2.83;;
75087;SDS011;63664;44.868;40.600;2023-05-28T03:31:43;7.60;;;2.70;;
75087;SDS011;63664;44.868;40.600;2023-05-28T03:34:17;9.02;;;3.10;;
75087;SDS011;63664;44.868;40.600;2023-05-28T03:36:43;4.53;;;2.72;;
75087;SDS011;63664;44.868;40.600;2023-05-28T03:39:12;4.25;;;2.63;;
75087;SDS011;63664;44.868;40.600;2023-05-28T03:41:41;6.25;;;3.25;;
75087;SDS011;63664;44.868;40.600;2023-05-28T03:44:12;9.52;;;3.15;;
75087;SDS011;63664;44.868;40.600;2023-05-28T03:46:38;5.40;;;3.25;;
75087;SDS011;63664;44.868;40.600;2023-05-28T03:49:16;11.95;;;3.17;;
75087;SDS011;63664;44.868;40.600;2023-05-28T03:51:45;7.47;;;3.03;;
75087;SDS011;63664;44.868;40.600;2023-05-28T03:54:14;9.25;;;3.20;;
75087;SDS011;63664;44.868;40.600;2023-05-28T03:56:44;8.88;;;3.42;;
75087;SDS011;63664;44.868;40.600;2023-05-28T03:59:10;7.68;;;3.65;;
75087;SDS011;63664;44.868;40.600;2023-05-28T04:01:37;9.80;;;3.63;;
75087;SDS011;63664;44.868;40.600;2023-05-28T04:04:05;6.75;;;2.92;;
75087;SDS011;63664;44.868;40.600;2023-05-28T04:06:32;10.48;;;3.45;;
75087;SDS011;63664;44.868;40.600;2023-05-28T04:08:58;9.88;;;3.45;;
75087;SDS011;63664;44.868;40.600;2023-05-28T04:11:28;11.52;;;3.88;;
75087;SDS011;63664;44.868;40.600;2023-05-28T04:13:58;6.55;;;3.47;;
75087;SDS011;63664;44.868;40.600;2023-05-28T04:16:26;7.88;;;4.05;;
75087;SDS011;63664;44.868;40.600;2023-05-28T04:18:57;6.60;;;3.72;;
75087;SDS011;63664;44.868;40.600;2023-05-28T04:21:26;6.70;;;3.40;;
75087;SDS011;63664;44.868;40.600;2023-05-28T04:23:54;6.85;;;3.10;;
75087;SDS011;63664;44.868;40.600;2023-05-28T04:26:23;9.98;;;3.13;;
75087;SDS011;63664;44.868;40.600;2023-05-28T04:28:50;8.32;;;3.30;;
75087;SDS011;63664;44.868;40.600;2023-05-28T04:31:19;13.95;;;3.65;;
75087;SDS011;63664;44.868;40.600;2023-05-28T04:33:48;9.43;;;3.58;;
75087;SDS011;63664;44.868;40.600;2023-05-28T04:36:14;6.97;;;3.40;;
75087;SDS011;63664;44.868;40.600;2023-05-28T04:38:42;7.63;;;3.55;;
75087;SDS011;63664;44.868;40.600;2023-05-28T04:41:09;7.75;;;3.67;;
75087;SDS011;63664;44.868;40.600;2023-05-28T04:43:40;11.90;;;3.80;;
75087;SDS011;63664;44.868;40.600;2023-05-28T04:46:07;8.60;;;3.53;;
75087;SDS011;63664;44.868;40.600;2023-05-28T04:48:36;6.90;;;3.85;;
75087;SDS011;63664;44.868;40.600;2023-05-28T04:51:03;4.72;;;3.33;;
75087;SDS011;63664;44.868;40.600;2023-05-28T04:53:32;9.40;;;4.20;;
75087;SDS011;63664;44.868;40.600;2023-05-28T04:56:02;8.18;;;4.10;;
75087;SDS011;63664;44.868;40.600;2023-05-28T04:58:30;11.25;;;4.32;;
75087;SDS011;63664;44.868;40.600;2023-05-28T05:00:57;9.57;;;4.25;;
75087;SDS011;63664;44.868;40.600;2023-05-28T05:03:27;7.78;;;4.28;;
75087;SDS011;63664;44.868;40.600;2023-05-28T05:05:57;7.55;;;3.67;;
75087;SDS011;63664;44.868;40.600;2023-05-28T05:08:29;6.85;;;4.45;;
75087;SDS011;63664;44.868;40.600;2023-05-28T05:10:56;7.03;;;4.00;;
75087;SDS011;63664;44.868;40.600;2023-05-28T05:15:54;7.53;;;4.20;;
75087;SDS011;63664;44.868;40.600;2023-05-28T05:18:23;9.98;;;4.43;;
75087;SDS011;63664;44.868;40.600;2023-05-28T05:20:50;8.38;;;3.95;;
75087;SDS011;63664;44.868;40.600;2023-05-28T05:23:16;7.15;;;3.97;;
75087;SDS011;63664;44.868;40.600;2023-05-28T05:25:47;9.55;;;4.57;;
75087;SDS011;63664;44.868;40.600;2023-05-28T05:28:16;14.63;;;4.32;;
75087;SDS011;63664;44.868;40.600;2023-05-28T05:30:45;16.02;;;5.05;;
75087;SDS011;63664;44.868;40.600;2023-05-28T05:33:17;9.63;;;5.15;;
75087;SDS011;63664;44.868;40.600;2023-05-28T05:36:03;6.95;;;3.80;;
75087;SDS011;63664;44.868;40.600;2023-05-28T05:38:59;7.63;;;3.80;;
75087;SDS011;63664;44.868;40.600;2023-05-28T05:41:46;9.93;;;4.22;;
75087;SDS011;63664;44.868;40.600;2023-05-28T05:44:18;8.10;;;4.05;;
75087;SDS011;63664;44.868;40.600;2023-05-28T05:46:44;9.90;;;4.53;;
75087;SDS011;63664;44.868;40.600;2023-05-28T05:49:12;8.85;;;4.57;;
75087;SDS011;63664;44.868;40.600;2023-05-28T08:13:51;5.78;;;2.92;;
75087;SDS011;63664;44.868;40.600;2023-05-28T08:16:18;7.88;;;2.60;;
75087;SDS011;63664;44.868;40.600;2023-05-28T08:19:15;7.00;;;2.80;;
75087;SDS011;63664;44.868;40.600;2023-05-28T08:21:44;6.82;;;2.50;;
75087;SDS011;63664;44.868;40.600;2023-05-28T08:24:13;6.38;;;2.95;;
75087;SDS011;63664;44.868;40.600;2023-05-28T08:26:43;5.10;;;2.30;;
75087;SDS011;63664;44.868;40.600;2023-05-28T08:29:09;5.32;;;2.35;;
75087;SDS011;63664;44.868;40.600;2023-05-28T08:31:40;6.18;;;2.78;;
75087;SDS011;63664;44.868;40.600;2023-05-28T08:34:19;6.13;;;2.63;;
75087;SDS011;63664;44.868;40.600;2023-05-28T08:36:46;5.95;;;3.03;;
75087;SDS011;63664;44.868;40.600;2023-05-28T08:39:18;7.38;;;3.30;;
75087;SDS011;63664;44.868;40.600;2023-05-28T08:41:57;5.72;;;2.58;;
75087;SDS011;63664;44.868;40.600;2023-05-28T08:44:28;7.18;;;2.60;;
75087;SDS011;63664;44.868;40.600;2023-05-28T08:46:57;7.68;;;3.00;;
75087;SDS011;63664;44.868;40.600;2023-05-28T08:49:53;7.40;;;3.15;;
75087;SDS011;63664;44.868;40.600;2023-05-28T08:52:25;5.15;;;3.10;;
75087;SDS011;63664;44.868;40.600;2023-05-28T08:54:52;7.85;;;3.70;;
75087;SDS011;63664;44.868;40.600;2023-05-28T08:57:18;7.00;;;3.38;;
75087;SDS011;63664;44.868;40.600;2023-05-28T08:59:55;7.80;;;2.97;;
75087;SDS011;63664;44.868;40.600;2023-05-28T09:02:28;5.25;;;3.00;;
75087;SDS011;63664;44.868;40.600;2023-05-28T09:04:58;10.48;;;3.15;;
75087;SDS011;63664;44.868;40.600;2023-05-28T09:07:28;11.18;;;5.50;;
75087;SDS011;63664;44.868;40.600;2023-05-28T09:09:59;7.97;;;3.55;;
75087;SDS011;63664;44.868;40.600;2023-05-28T09:12:34;6.05;;;3.28;;
75087;SDS011;63664;44.868;40.600;2023-05-28T09:15:03;8.90;;;3.70;;
75087;SDS011;63664;44.868;40.600;2023-05-28T09:20:10;6.05;;;3.85;;
75087;SDS011;63664;44.868;40.600;2023-05-28T09:22:41;8.10;;;3.88;;
75087;SDS011;63664;44.868;40.600;2023-05-28T09:25:33;7.55;;;3.95;;
75087;SDS011;63664;44.868;40.600;2023-05-28T09:28:17;10.20;;;4.80;;
75087;SDS011;63664;44.868;40.600;2023-05-28T09:30:46;6.35;;;3.95;;
75087;SDS011;63664;44.868;40.600;2023-05-28T09:33:14;6.30;;;3.67;;
75087;SDS011;63664;44.868;40.600;2023-05-28T09:35:46;6.60;;;3.55;;
75087;SDS011;63664;44.868;40.600;2023-05-28T09:38:25;8.93;;;3.10;;
75087;SDS011;63664;44.868;40.600;2023-05-28T09:40:58;7.68;;;3.22;;
75087;SDS011;63664;44.868;40.600;2023-05-28T09:43:29;6.55;;;3.13;;
75087;SDS011;63664;44.868;40.600;2023-05-28T09:46:08;10.40;;;3.92;;
75087;SDS011;63664;44.868;40.600;2023-05-28T09:48:38;8.85;;;3.53;;
75087;SDS011;63664;44.868;40.600;2023-05-28T09:51:04;6.38;;;3.88;;
75087;SDS011;63664;44.868;40.600;2023-05-28T09:53:32;6.38;;;3.40;;
75087;SDS011;63664;44.868;40.600;2023-05-28T09:56:03;10.23;;;3.90;;
75087;SDS011;63664;44.868;40.600;2023-05-28T09:58:33;6.72;;;3.45;;
75087;SDS011;63664;44.868;40.600;2023-05-28T10:01:10;6.65;;;3.65;;
75087;SDS011;63664;44.868;40.600;2023-05-28T10:03:43;7.82;;;3.67;;
75087;SDS011;63664;44.868;40.600;2023-05-28T10:06:15;8.60;;;3.65;;
75087;SDS011;63664;44.868;40.600;2023-05-28T10:11:22;6.35;;;3.40;;
75087;SDS011;63664;44.868;40.600;2023-05-28T10:14:01;8.30;;;3.30;;
75087;SDS011;63664;44.868;40.600;2023-05-28T10:16:32;7.65;;;3.10;;
75087;SDS011;63664;44.868;40.600;2023-05-28T10:18:58;8.38;;;3.25;;
75087;SDS011;63664;44.868;40.600;2023-05-28T10:21:27;5.43;;;3.17;;
75087;SDS011;63664;44.868;40.600;2023-05-28T10:23:53;7.43;;;3.10;;
75087;SDS011;63664;44.868;40.600;2023-05-28T10:26:25;8.75;;;3.40;;
75087;SDS011;63664;44.868;40.600;2023-05-28T10:28:55;6.53;;;3.10;;
75087;SDS011;63664;44.868;40.600;2023-05-28T10:31:22;7.53;;;3.28;;
75087;SDS011;63664;44.868;40.600;2023-05-28T10:33:51;5.97;;;2.92;;
75087;SDS011;63664;44.868;40.600;2023-05-28T10:36:20;5.22;;;3.00;;
75087;SDS011;63664;44.868;40.600;2023-05-28T10:41:18;4.72;;;2.35;;
75087;SDS011;63664;44.868;40.600;2023-05-28T10:43:48;5.03;;;2.35;;
75087;SDS011;63664;44.868;40.600;2023-05-28T10:46:27;4.50;;;2.15;;
75087;SDS011;63664;44.868;40.600;2023-05-28T10:57:10;3.63;;;2.05;;
75087;SDS011;63664;44.868;40.600;2023-05-28T10:59:38;7.78;;;2.10;;
75087;SDS011;63664;44.868;40.600;2023-05-28T11:02:07;5.07;;;2.20;;
75087;SDS011;63664;44.868;40.600;2023-05-28T11:04:34;4.63;;;2.05;;
75087;SDS011;63664;44.868;40.600;2023-05-28T11:07:01;4.30;;;2.72;;
75087;SDS011;63664;44.868;40.600;2023-05-28T11:09:36;5.63;;;2.40;;
75087;SDS011;63664;44.868;40.600;2023-05-28T11:12:11;4.93;;;1.88;;
75087;SDS011;63664;44.868;40.600;2023-05-28T11:14:40;4.30;;;2.08;;
75087;SDS011;63664;44.868;40.600;2023-05-28T11:17:07;3.50;;;1.75;;
75087;SDS011;63664;44.868;40.600;2023-05-28T11:19:41;6.85;;;2.20;;
75087;SDS011;63664;44.868;40.600;2023-05-28T11:22:11;7.45;;;1.90;;
75087;SDS011;63664;44.868;40.600;2023-05-28T11:24:54;4.75;;;2.08;;
75087;SDS011;63664;44.868;40.600;2023-05-28T11:27:24;4.95;;;1.92;;
75087;SDS011;63664;44.868;40.600;2023-05-28T11:29:57;4.13;;;2.10;;
75087;SDS011;63664;44.868;40.600;2023-05-28T11:32:28;5.47;;;1.95;;
75087;SDS011;63664;44.868;40.600;2023-05-28T11:35:02;3.58;;;2.05;;
75087;SDS011;63664;44.868;40.600;2023-05-28T11:37:33;5.70;;;1.98;;
75087;SDS011;63664;44.868;40.600;2023-05-28T11:40:04;4.30;;;2.00;;
75087;SDS011;63664;44.868;40.600;2023-05-28T11:42:42;8.38;;;2.35;;
75087;SDS011;63664;44.868;40.600;2023-05-28T11:45:15;4.85;;;1.90;;
75087;SDS011;63664;44.868;40.600;2023-05-28T11:47:50;5.50;;;2.17;;
75087;SDS011;63664;44.868;40.600;2023-05-28T11:50:16;6.65;;;2.20;;
75087;SDS011;63664;44.868;40.600;2023-05-28T11:52:46;7.00;;;2.15;;
75087;SDS011;63664;44.868;40.600;2023-05-28T11:55:20;6.47;;;2.47;;
75087;SDS011;63664;44.868;40.600;2023-05-28T11:57:55;4.38;;;2.08;;
75087;SDS011;63664;44.868;40.600;2023-05-28T12:00:33;3.97;;;1.95;;
75087;SDS011;63664;44.868;40.600;2023-05-28T12:03:01;5.63;;;2.13;;
75087;SDS011;63664;44.868;40.600;2023-05-28T12:05:27;4.80;;;2.15;;
75087;SDS011;63664;44.868;40.600;2023-05-28T12:08:09;5.75;;;2.00;;
75087;SDS011;63664;44.868;40.600;2023-05-28T12:10:46;3.60;;;2.03;;
75087;SDS011;63664;44.868;40.600;2023-05-28T12:13:12;3.88;;;2.30;;
75087;SDS011;63664;44.868;40.600;2023-05-28T12:15:42;4.45;;;2.45;;
75087;SDS011;63664;44.868;40.600;2023-05-28T12:18:09;4.28;;;1.98;;
75087;SDS011;63664;44.868;40.600;2023-05-28T12:20:44;4.82;;;2.00;;
75087;SDS011;63664;44.868;40.600;2023-05-28T12:23:13;4.45;;;2.15;;
75087;SDS011;63664;44.868;40.600;2023-05-28T12:25:49;4.10;;;2.28;;
75087;SDS011;63664;44.868;40.600;2023-05-28T12:28:17;6.22;;;2.67;;
75087;SDS011;63664;44.868;40.600;2023-05-28T12:30:48;6.22;;;2.70;;
75087;SDS011;63664;44.868;40.600;2023-05-28T12:33:19;3.90;;;2.25;;
75087;SDS011;63664;44.868;40.600;2023-05-28T12:35:49;7.78;;;2.50;;
75087;SDS011;63664;44.868;40.600;2023-05-28T12:38:17;4.25;;;2.17;;
75087;SDS011;63664;44.868;40.600;2023-05-28T12:40:45;6.05;;;2.22;;
75087;SDS011;63664;44.868;40.600;2023-05-28T12:43:13;4.78;;;2.83;;
75087;SDS011;63664;44.868;40.600;2023-05-28T12:45:42;5.60;;;2.47;;
75087;SDS011;63664;44.868;40.600;2023-05-28T12:48:08;5.78;;;2.60;;
75087;SDS011;63664;44.868;40.600;2023-05-28T12:50:38;6.88;;;2.92;;
75087;SDS011;63664;44.868;40.600;2023-05-28T12:53:06;7.35;;;2.53;;
75087;SDS011;63664;44.868;40.600;2023-05-28T12:55:33;6.13;;;2.65;;
75087;SDS011;63664;44.868;40.600;2023-05-28T12:58:04;4.85;;;2.30;;
75087;SDS011;63664;44.868;40.600;2023-05-28T13:00:30;6.53;;;2.22;;
75087;SDS011;63664;44.868;40.600;2023-05-28T13:02:59;4.53;;;2.70;;
75087;SDS011;63664;44.868;40.600;2023-05-28T13:05:30;5.55;;;2.67;;
75087;SDS011;63664;44.868;40.600;2023-05-28T13:07:59;5.32;;;2.90;;
75087;SDS011;63664;44.868;40.600;2023-05-28T13:10:29;6.47;;;3.00;;
75087;SDS011;63664;44.868;40.600;2023-05-28T13:12:55;6.32;;;3.03;;
75087;SDS011;63664;44.868;40.600;2023-05-28T13:15:22;4.68;;;2.70;;
75087;SDS011;63664;44.868;40.600;2023-05-28T13:17:48;10.23;;;3.42;;
75087;SDS011;63664;44.868;40.600;2023-05-28T13:20:15;13.38;;;3.60;;
75087;SDS011;63664;44.868;40.600;2023-05-28T13:22:41;23.08;;;4.10;;
75087;SDS011;63664;44.868;40.600;2023-05-28T13:25:12;8.00;;;3.83;;
75087;SDS011;63664;44.868;40.600;2023-05-28T13:27:39;15.45;;;6.57;;
75087;SDS011;63664;44.868;40.600;2023-05-28T13:30:06;13.63;;;4.80;;
75087;SDS011;63664;44.868;40.600;2023-05-28T13:32:33;13.10;;;4.90;;
75087;SDS011;63664;44.868;40.600;2023-05-28T13:35:02;8.70;;;3.42;;
75087;SDS011;63664;44.868;40.600;2023-05-28T13:37:29;14.00;;;5.82;;
75087;SDS011;63664;44.868;40.600;2023-05-28T13:39:58;17.90;;;6.85;;
75087;SDS011;63664;44.868;40.600;2023-05-28T13:42:24;13.63;;;5.50;;
75087;SDS011;63664;44.868;40.600;2023-05-28T13:44:54;11.55;;;4.93;;
75087;SDS011;63664;44.868;40.600;2023-05-28T13:47:21;6.53;;;3.53;;
75087;SDS011;63664;44.868;40.600;2023-05-28T13:49:53;8.88;;;3.47;;
75087;SDS011;63664;44.868;40.600;2023-05-28T13:52:19;7.22;;;3.17;;
75087;SDS011;63664;44.868;40.600;2023-05-28T13:54:45;9.68;;;3.60;;
75087;SDS011;63664;44.868;40.600;2023-05-28T13:57:17;6.03;;;3.60;;
75087;SDS011;63664;44.868;40.600;2023-05-28T13:59:46;4.85;;;3.17;;
75087;SDS011;63664;44.868;40.600;2023-05-28T14:02:15;5.78;;;3.10;;
75087;SDS011;63664;44.868;40.600;2023-05-28T14:04:44;9.65;;;3.08;;
75087;SDS011;63664;44.868;40.600;2023-05-28T15:59:01;6.57;;;1.80;;
75087;SDS011;63664;44.868;40.600;2023-05-28T16:01:28;2.60;;;1.63;;
75087;SDS011;63664;44.868;40.600;2023-05-28T16:03:56;6.28;;;1.70;;
75087;SDS011;63664;44.868;40.600;2023-05-28T16:06:25;5.32;;;1.92;;
75087;SDS011;63664;44.868;40.600;2023-05-28T16:08:54;2.78;;;1.67;;
75087;SDS011;63664;44.868;40.600;2023-05-28T16:11:24;7.05;;;2.10;;
75087;SDS011;63664;44.868;40.600;2023-05-28T16:13:56;4.88;;;1.90;;
75087;SDS011;63664;44.868;40.600;2023-05-28T16:16:23;8.57;;;2.22;;
75087;SDS011;63664;44.868;40.600;2023-05-28T16:18:53;7.32;;;2.20;;
75087;SDS011;63664;44.868;40.600;2023-05-28T16:21:22;4.38;;;2.03;;
75087;SDS011;63664;44.868;40.600;2023-05-28T16:23:53;7.88;;;2.30;;
75087;SDS011;63664;44.868;40.600;2023-05-28T16:26:22;5.47;;;2.80;;
75087;SDS011;63664;44.868;40.600;2023-05-28T16:28:52;4.43;;;2.42;;
75087;SDS011;63664;44.868;40.600;2023-05-28T16:31:23;2.88;;;1.77;;
75087;SDS011;63664;44.868;40.600;2023-05-28T16:33:57;5.32;;;2.25;;
75087;SDS011;63664;44.868;40.600;2023-05-28T16:36:23;3.08;;;1.50;;
75087;SDS011;63664;44.868;40.600;2023-05-28T16:38:52;4.90;;;1.80;;
75087;SDS011;63664;44.868;40.600;2023-05-28T16:41:21;3.58;;;1.98;;
75087;SDS011;63664;44.868;40.600;2023-05-28T16:43:54;6.00;;;1.98;;
75087;SDS011;63664;44.868;40.600;2023-05-28T16:46:21;4.88;;;2.13;;
75087;SDS011;63664;44.868;40.600;2023-05-28T16:48:49;6.82;;;2.13;;
75087;SDS011;63664;44.868;40.600;2023-05-28T16:51:20;4.53;;;2.22;;
75087;SDS011;63664;44.868;40.600;2023-05-28T16:58:47;3.72;;;1.90;;
75087;SDS011;63664;44.868;40.600;2023-05-28T17:01:16;3.28;;;1.63;;
75087;SDS011;63664;44.868;40.600;2023-05-28T17:03:44;6.88;;;1.83;;
75087;SDS011;63664;44.868;40.600;2023-05-28T17:06:13;3.15;;;1.30;;
75087;SDS011;63664;44.868;40.600;2023-05-28T17:08:41;6.72;;;1.60;;
75087;SDS011;63664;44.868;40.600;2023-05-28T17:11:10;4.00;;;1.20;;
75087;SDS011;63664;44.868;40.600;2023-05-28T17:13:38;1.17;;;1.00;;
75087;SDS011;63664;44.868;40.600;2023-05-28T17:16:05;8.57;;;1.40;;
75087;SDS011;63664;44.868;40.600;2023-05-28T17:18:31;3.25;;;1.25;;
75087;SDS011;63664;44.868;40.600;2023-05-28T17:21:00;2.45;;;1.23;;
75087;SDS011;63664;44.868;40.600;2023-05-28T17:23:26;1.60;;;1.13;;
75087;SDS011;63664;44.868;40.600;2023-05-28T17:25:54;4.65;;;1.13;;
75087;SDS011;63664;44.868;40.600;2023-05-28T17:28:21;1.85;;;1.10;;
75087;SDS011;63664;44.868;40.600;2023-05-28T17:30:53;2.03;;;1.30;;
75087;SDS011;63664;44.868;40.600;2023-05-28T17:33:22;3.10;;;1.52;;
75087;SDS011;63664;44.868;40.600;2023-05-28T17:35:50;6.10;;;1.42;;
75087;SDS011;63664;44.868;40.600;2023-05-28T17:38:19;3.50;;;1.60;;
75087;SDS011;63664;44.868;40.600;2023-05-28T17:40:46;1.98;;;1.30;;
75087;SDS011;63664;44.868;40.600;2023-05-28T17:43:22;3.83;;;1.90;;
75087;SDS011;63664;44.868;40.600;2023-05-28T17:45:53;6.30;;;1.70;;
75087;SDS011;63664;44.868;40.600;2023-05-28T17:48:29;2.25;;;1.60;;
75087;SDS011;63664;44.868;40.600;2023-05-28T17:50:58;4.72;;;1.40;;
75087;SDS011;63664;44.868;40.600;2023-05-28T17:53:30;4.68;;;1.70;;
75087;SDS011;63664;44.868;40.600;2023-05-28T17:55:56;3.25;;;1.50;;
75087;SDS011;63664;44.868;40.600;2023-05-28T17:58:22;3.60;;;1.40;;
75087;SDS011;63664;44.868;40.600;2023-05-28T18:00:52;2.50;;;1.67;;
75087;SDS011;63664;44.868;40.600;2023-05-28T18:03:19;6.38;;;1.70;;
75087;SDS011;63664;44.868;40.600;2023-05-28T18:05:48;2.50;;;1.42;;
75087;SDS011;63664;44.868;40.600;2023-05-28T18:08:14;3.10;;;1.52;;
75087;SDS011;63664;44.868;40.600;2023-05-28T18:10:45;3.22;;;1.50;;
75087;SDS011;63664;44.868;40.600;2023-05-28T18:13:25;7.03;;;1.75;;
75087;SDS011;63664;44.868;40.600;2023-05-28T18:15:54;4.25;;;1.75;;
75087;SDS011;63664;44.868;40.600;2023-05-28T18:18:25;4.60;;;1.65;;
75087;SDS011;63664;44.868;40.600;2023-05-28T18:20:51;2.85;;;1.73;;
75087;SDS011;63664;44.868;40.600;2023-05-28T18:23:20;5.72;;;1.80;;
75087;SDS011;63664;44.868;40.600;2023-05-28T18:25:47;3.92;;;1.58;;
75087;SDS011;63664;44.868;40.600;2023-05-28T18:28:13;9.52;;;1.90;;
75087;SDS011;63664;44.868;40.600;2023-05-28T18:30:40;6.78;;;1.98;;
75087;SDS011;63664;44.868;40.600;2023-05-28T18:33:13;15.88;;;9.52;;
75087;SDS011;63664;44.868;40.600;2023-05-28T18:35:45;11.73;;;7.00;;
75087;SDS011;63664;44.868;40.600;2023-05-28T18:38:18;6.90;;;2.47;;
75087;SDS011;63664;44.868;40.600;2023-05-28T18:40:44;4.30;;;2.33;;
75087;SDS011;63664;44.868;40.600;2023-05-28T18:43:13;3.42;;;1.70;;
75087;SDS011;63664;44.868;40.600;2023-05-28T18:45:45;6.82;;;1.63;;
75087;SDS011;63664;44.868;40.600;2023-05-28T18:48:13;7.63;;;1.70;;
75087;SDS011;63664;44.868;40.600;2023-05-28T18:50:40;7.60;;;1.80;;
75087;SDS011;63664;44.868;40.600;2023-05-28T18:53:07;3.65;;;1.45;;
75087;SDS011;63664;44.868;40.600;2023-05-28T18:55:39;2.67;;;1.70;;
75087;SDS011;63664;44.868;40.600;2023-05-28T18:58:08;6.05;;;1.55;;
75087;SDS011;63664;44.868;40.600;2023-05-28T19:00:34;3.72;;;1.60;;
75087;SDS011;63664;44.868;40.600;2023-05-28T19:03:04;3.40;;;1.63;;
75087;SDS011;63664;44.868;40.600;2023-05-28T19:05:30;2.92;;;1.67;;
75087;SDS011;63664;44.868;40.600;2023-05-28T19:07:56;2.40;;;1.60;;
75087;SDS011;63664;44.868;40.600;2023-05-28T19:10:25;2.42;;;1.45;;
75087;SDS011;63664;44.868;40.600;2023-05-28T19:12:52;3.58;;;1.95;;
75087;SDS011;63664;44.868;40.600;2023-05-28T19:15:20;3.97;;;2.00;;
75087;SDS011;63664;44.868;40.600;2023-05-28T19:17:47;4.20;;;1.85;;
75087;SDS011;63664;44.868;40.600;2023-05-28T19:20:16;3.92;;;2.10;;
75087;SDS011;63664;44.868;40.600;2023-05-28T19:22:42;3.35;;;2.22;;
75087;SDS011;63664;44.868;40.600;2023-05-28T19:25:09;6.55;;;2.22;;
75087;SDS011;63664;44.868;40.600;2023-05-28T19:27:36;4.20;;;2.60;;
75087;SDS011;63664;44.868;40.600;2023-05-28T19:30:06;8.52;;;2.88;;
75087;SDS011;63664;44.868;40.600;2023-05-28T19:32:33;7.88;;;2.75;;